Time;durP1;ratioP1;P1;durP2;ratioP2;P2;SDS_P1;SDS_P2;PMS_P1;PMS_P2;Temp;Humidity;BMP_temperature;BMP_pressure;BME280_temperature;BME280_humidity;BME280_pressure;Samples;Min_cycle;Max_cycle;Signal;HPM_P1;HPM_P2
2022/01/22 00:01:15;;;;;;;0.53;0.23;;;;;;;;;;5074482;28;20271;-74
2022/01/22 00:03:44;;;;;;;0.40;0.40;;;;;;;;;;5073626;28;20187;-75
2022/01/22 00:06:14;;;;;;;0.20;0.20;;;;;;;;;;5074469;28;20747;-75
2022/01/22 00:08:42;;;;;;;0.30;0.30;;;;;;;;;;5073778;28;20233;-74
2022/01/22 00:11:10;;;;;;;0.30;0.30;;;;;;;;;;5074452;28;20202;-73
2022/01/22 00:16:26;;;;;;;0.30;0.30;;;;;;;;;;5074280;28;20191;-74
2022/01/22 00:18:55;;;;;;;0.23;0.23;;;;;;;;;;5073207;28;20232;-73
2022/01/22 00:21:23;;;;;;;0.57;0.40;;;;;;;;;;5073692;28;20210;-75
2022/01/22 00:23:56;;;;;;;0.30;0.30;;;;;;;;;;5073812;28;20210;-72
2022/01/22 00:26:25;;;;;;;0.20;0.20;;;;;;;;;;5072626;28;20194;-71
2022/01/22 00:28:53;;;;;;;0.27;0.27;;;;;;;;;;5066103;28;20218;-75
2022/01/22 00:31:21;;;;;;;0.53;0.33;;;;;;;;;;5074246;28;20202;-75
2022/01/22 00:33:52;;;;;;;0.47;0.33;;;;;;;;;;5073366;28;20206;-74
2022/01/22 00:36:21;;;;;;;0.40;0.40;;;;;;;;;;5062593;28;20202;-73
2022/01/22 00:38:49;;;;;;;0.33;0.33;;;;;;;;;;5065534;28;20272;-75
2022/01/22 00:41:17;;;;;;;0.37;0.37;;;;;;;;;;5073656;28;20232;-72
2022/01/22 00:43:46;;;;;;;0.30;0.30;;;;;;;;;;5072134;28;20194;-74
2022/01/22 00:46:14;;;;;;;0.33;0.30;;;;;;;;;;5073516;28;20292;-75
2022/01/22 00:48:43;;;;;;;1.03;0.40;;;;;;;;;;5073328;28;20646;-72
2022/01/22 00:51:12;;;;;;;0.30;0.30;;;;;;;;;;5073696;28;20207;-75
2022/01/22 00:53:41;;;;;;;0.23;0.23;;;;;;;;;;5073304;28;20704;-75
2022/01/22 00:56:09;;;;;;;0.27;0.27;;;;;;;;;;5073772;28;20198;-72
2022/01/22 00:58:38;;;;;;;0.43;0.30;;;;;;;;;;5073034;28;20227;-76
2022/01/22 01:01:09;;;;;;;0.27;0.27;;;;;;;;;;5073189;28;20202;-73
2022/01/22 01:03:38;;;;;;;0.20;0.20;;;;;;;;;;5073515;28;20189;-77
2022/01/22 01:06:06;;;;;;;0.50;0.30;;;;;;;;;;5073324;28;20210;-73
2022/01/22 01:08:36;;;;;;;0.40;0.40;;;;;;;;;;5073300;28;20222;-75
2022/01/22 01:11:05;;;;;;;0.30;0.20;;;;;;;;;;5072940;28;20190;-76
2022/01/22 01:13:40;;;;;;;0.40;0.33;;;;;;;;;;5073428;28;20217;-72
2022/01/22 01:16:27;;;;;;;0.30;0.30;;;;;;;;;;5073292;28;20727;-72
2022/01/22 01:33:09;;;;;;;0.23;0.20;;;;;;;;;;5055001;28;20243;-75
2022/01/22 01:35:41;;;;;;;0.47;0.30;;;;;;;;;;5073107;28;20202;-74
2022/01/22 01:38:09;;;;;;;0.50;0.40;;;;;;;;;;5071393;28;20618;-75
2022/01/22 01:40:43;;;;;;;0.30;0.23;;;;;;;;;;5072851;28;20662;-72
2022/01/22 01:43:19;;;;;;;0.50;0.47;;;;;;;;;;5067674;28;20202;-74
2022/01/22 01:45:48;;;;;;;0.37;0.30;;;;;;;;;;5054800;28;20248;-75
2022/01/22 01:48:21;;;;;;;0.30;0.30;;;;;;;;;;5056585;28;20223;-73
2022/01/22 01:50:50;;;;;;;0.47;0.43;;;;;;;;;;5056753;28;20199;-72
2022/01/22 01:53:28;;;;;;;0.47;0.40;;;;;;;;;;5065814;28;20211;-73
2022/01/22 01:57:23;;;;;;;0.43;0.40;;;;;;;;;;5077140;28;20268;-72
2022/01/22 01:58:50;;;;;;;0.33;0.30;;;;;;;;;;5075620;28;20630;-73
2022/01/22 02:01:19;;;;;;;0.50;0.33;;;;;;;;;;5076395;28;20198;-72
2022/01/22 02:03:47;;;;;;;0.50;0.43;;;;;;;;;;5076479;28;20638;-75
2022/01/22 02:06:15;;;;;;;0.63;0.37;;;;;;;;;;5076704;28;20723;-72
2022/01/22 02:08:44;;;;;;;0.60;0.30;;;;;;;;;;5075823;28;20214;-74
2022/01/22 02:11:16;;;;;;;0.20;0.20;;;;;;;;;;5076411;28;20807;-74
2022/01/22 02:13:59;;;;;;;0.57;0.40;;;;;;;;;;5076112;28;20209;-75
2022/01/22 02:24:49;;;;;;;0.43;0.40;;;;;;;;;;5056592;28;20203;-71
2022/01/22 02:27:17;;;;;;;0.20;0.20;;;;;;;;;;5058777;28;20215;-73
2022/01/22 02:29:46;;;;;;;0.40;0.40;;;;;;;;;;5055922;28;20662;-74
2022/01/22 02:32:46;;;;;;;0.43;0.40;;;;;;;;;;5059014;28;20199;-72
2022/01/22 02:35:23;;;;;;;0.37;0.30;;;;;;;;;;5076117;28;20210;-73
2022/01/22 02:37:58;;;;;;;0.73;0.30;;;;;;;;;;5060453;28;20626;-71
2022/01/22 02:40:29;;;;;;;0.63;0.40;;;;;;;;;;5076079;28;20240;-75
2022/01/22 02:42:59;;;;;;;0.30;0.30;;;;;;;;;;5075807;28;20596;-73
2022/01/22 02:45:28;;;;;;;0.50;0.43;;;;;;;;;;5075821;28;20597;-73
2022/01/22 02:47:56;;;;;;;0.23;0.23;;;;;;;;;;5075512;28;20225;-72
2022/01/22 02:50:24;;;;;;;0.43;0.33;;;;;;;;;;5075774;28;20203;-72
2022/01/22 02:52:54;;;;;;;0.63;0.30;;;;;;;;;;5070497;28;20203;-75
2022/01/22 02:55:23;;;;;;;0.60;0.47;;;;;;;;;;5056086;28;20202;-75
2022/01/22 02:57:51;;;;;;;0.90;0.40;;;;;;;;;;5054527;28;20277;-74
2022/01/22 03:00:22;;;;;;;0.40;0.33;;;;;;;;;;5055611;28;20284;-73
2022/01/22 03:02:51;;;;;;;0.50;0.30;;;;;;;;;;5056670;28;20257;-75
2022/01/22 03:05:20;;;;;;;0.20;0.20;;;;;;;;;;5055752;28;20217;-73
2022/01/22 03:07:51;;;;;;;0.33;0.20;;;;;;;;;;5057482;28;20632;-75
2022/01/22 03:10:25;;;;;;;0.23;0.23;;;;;;;;;;5075458;28;20610;-74
2022/01/22 03:13:12;;;;;;;0.40;0.20;;;;;;;;;;5075491;28;20279;-75
2022/01/22 03:15:55;;;;;;;0.20;0.20;;;;;;;;;;5075725;28;20191;-72
2022/01/22 03:18:37;;;;;;;0.20;0.20;;;;;;;;;;5065065;28;20222;-75
2022/01/22 03:21:13;;;;;;;0.10;0.10;;;;;;;;;;5055335;28;20276;-73
2022/01/22 03:29:18;;;;;;;0.10;0.10;;;;;;;;;;5074658;28;20642;-73
2022/01/22 03:31:48;;;;;;;0.10;0.10;;;;;;;;;;5062766;28;20203;-72
2022/01/22 03:34:16;;;;;;;0.00;0.00;;;;;;;;;;5067251;28;20662;-74
2022/01/22 03:36:44;;;;;;;0.10;0.10;;;;;;;;;;5074356;28;20241;-73
2022/01/22 03:39:13;;;;;;;0.00;0.00;;;;;;;;;;5074807;28;20304;-72
2022/01/22 03:41:42;;;;;;;0.00;0.00;;;;;;;;;;5074992;28;20194;-73
2022/01/22 03:44:11;;;;;;;0.00;0.00;;;;;;;;;;5074790;28;20202;-74
2022/01/22 03:46:41;;;;;;;0.00;0.00;;;;;;;;;;5074836;28;20267;-73
2022/01/22 03:49:11;;;;;;;0.17;0.10;;;;;;;;;;5073403;28;20195;-72
2022/01/22 03:51:39;;;;;;;0.00;0.00;;;;;;;;;;5074837;28;20642;-74
2022/01/22 03:54:07;;;;;;;0.00;0.00;;;;;;;;;;5074422;28;20628;-73
2022/01/22 03:56:38;;;;;;;0.10;0.10;;;;;;;;;;5074729;28;20206;-74
2022/01/22 03:59:08;;;;;;;0.00;0.00;;;;;;;;;;5069714;28;20223;-74
2022/01/22 04:04:27;;;;;;;0.33;0.13;;;;;;;;;;5066261;28;20646;-73
2022/01/22 04:09:43;;;;;;;0.00;0.00;;;;;;;;;;5073692;28;20195;-72
2022/01/22 04:12:13;;;;;;;0.30;0.10;;;;;;;;;;5073736;28;20198;-72
2022/01/22 04:14:49;;;;;;;0.00;0.00;;;;;;;;;;5074107;28;20252;-72
2022/01/22 04:17:25;;;;;;;0.00;0.00;;;;;;;;;;5074182;28;20275;-72
2022/01/22 04:25:28;;;;;;;0.10;0.10;;;;;;;;;;5074431;28;20399;-72
2022/01/22 04:27:57;;;;;;;0.30;0.20;;;;;;;;;;5073845;28;20272;-74
2022/01/22 04:30:28;;;;;;;0.27;0.10;;;;;;;;;;5068677;28;20190;-72
2022/01/22 04:32:56;;;;;;;0.10;0.10;;;;;;;;;;5073402;28;20241;-75
2022/01/22 04:35:25;;;;;;;0.00;0.00;;;;;;;;;;5073339;28;20601;-71
2022/01/22 04:37:54;;;;;;;0.00;0.00;;;;;;;;;;5073651;28;20226;-72
2022/01/22 04:40:22;;;;;;;0.00;0.00;;;;;;;;;;5059665;28;20223;-72
2022/01/22 04:42:51;;;;;;;0.07;0.07;;;;;;;;;;5058584;28;20203;-76
2022/01/22 04:45:27;;;;;;;0.10;0.10;;;;;;;;;;5064926;28;20214;-76
2022/01/22 04:48:11;;;;;;;0.20;0.00;;;;;;;;;;5072625;28;20588;-76
2022/01/22 04:56:12;;;;;;;0.20;0.10;;;;;;;;;;5073566;28;20191;-75
2022/01/22 04:58:43;;;;;;;0.00;0.00;;;;;;;;;;5072224;28;20619;-74
2022/01/22 05:01:11;;;;;;;0.00;0.00;;;;;;;;;;5073460;28;20218;-75
2022/01/22 05:03:41;;;;;;;0.00;0.00;;;;;;;;;;5072943;28;20232;-75
2022/01/22 05:06:09;;;;;;;0.00;0.00;;;;;;;;;;5073350;28;20202;-75
2022/01/22 05:08:38;;;;;;;0.00;0.00;;;;;;;;;;5072716;28;20628;-73
2022/01/22 05:11:07;;;;;;;0.00;0.00;;;;;;;;;;5073691;28;20198;-73
2022/01/22 05:13:35;;;;;;;0.00;0.00;;;;;;;;;;5073011;28;20256;-73
2022/01/22 05:16:03;;;;;;;0.10;0.07;;;;;;;;;;5073648;28;20688;-74
2022/01/22 05:18:37;;;;;;;0.20;0.10;;;;;;;;;;5072603;28;20272;-73
2022/01/22 05:21:11;;;;;;;0.20;0.10;;;;;;;;;;5072444;28;20272;-74
2022/01/22 05:23:41;;;;;;;0.53;0.23;;;;;;;;;;5073349;28;20194;-73
2022/01/22 05:26:26;;;;;;;0.20;0.10;;;;;;;;;;5072763;28;20247;-75
2022/01/22 05:32:04;;;;;;;0.10;0.03;;;;;;;;;;5072865;28;20597;-73
2022/01/22 05:37:18;;;;;;;0.10;0.10;;;;;;;;;;5072833;28;20625;-73
2022/01/22 05:39:48;;;;;;;0.10;0.10;;;;;;;;;;5072821;28;20194;-74
2022/01/22 05:42:16;;;;;;;0.00;0.00;;;;;;;;;;5060845;28;20198;-72
2022/01/22 05:44:44;;;;;;;0.00;0.00;;;;;;;;;;5073274;28;20609;-74
2022/01/22 05:47:19;;;;;;;0.00;0.00;;;;;;;;;;5072869;28;20240;-74
2022/01/22 05:49:48;;;;;;;0.00;0.00;;;;;;;;;;5072304;28;20267;-74
2022/01/22 05:52:24;;;;;;;0.00;0.00;;;;;;;;;;5072940;28;20248;-73
2022/01/22 06:00:40;;;;;;;0.93;0.10;;;;;;;;;;5071969;28;20263;-73
2022/01/22 06:03:08;;;;;;;0.00;0.00;;;;;;;;;;5072751;28;20233;-74
2022/01/22 06:05:37;;;;;;;0.00;0.00;;;;;;;;;;5072474;28;20198;-74
2022/01/22 06:08:06;;;;;;;0.00;0.00;;;;;;;;;;5072533;28;20248;-74
2022/01/22 06:10:35;;;;;;;0.13;0.03;;;;;;;;;;5072417;28;20244;-71
2022/01/22 06:13:13;;;;;;;0.00;0.00;;;;;;;;;;5065088;28;20260;-72
2022/01/22 06:15:42;;;;;;;0.10;0.07;;;;;;;;;;5073170;28;20201;-72
2022/01/22 06:18:10;;;;;;;0.47;0.40;;;;;;;;;;5067618;28;20313;-74
2022/01/22 06:20:38;;;;;;;5.37;3.67;;;;;;;;;;5072106;28;20274;-72
2022/01/22 06:23:07;;;;;;;7.60;4.83;;;;;;;;;;5072398;28;20198;-73
2022/01/22 06:25:37;;;;;;;6.63;4.80;;;;;;;;;;5072503;28;20206;-72
2022/01/22 06:28:06;;;;;;;8.60;4.53;;;;;;;;;;5071853;28;20694;-74
2022/01/22 06:30:35;;;;;;;8.40;4.93;;;;;;;;;;5072254;28;20647;-72
2022/01/22 06:33:03;;;;;;;8.87;5.30;;;;;;;;;;5075382;28;20662;-75
2022/01/22 06:35:32;;;;;;;11.07;5.63;;;;;;;;;;5075778;28;20199;-72
2022/01/22 06:38:02;;;;;;;11.10;5.90;;;;;;;;;;5056449;28;20219;-71
2022/01/22 06:43:18;;;;;;;13.17;5.63;;;;;;;;;;5075826;28;20198;-74
2022/01/22 06:45:46;;;;;;;11.97;6.27;;;;;;;;;;5075678;28;20214;-73
2022/01/22 06:48:15;;;;;;;12.10;6.67;;;;;;;;;;5075509;28;20222;-72
2022/01/22 06:50:44;;;;;;;11.60;5.70;;;;;;;;;;5074819;28;20232;-74
2022/01/22 06:53:12;;;;;;;10.33;5.93;;;;;;;;;;5075761;28;20198;-74
2022/01/22 06:55:44;;;;;;;11.83;5.83;;;;;;;;;;5075850;28;20208;-73
2022/01/22 06:58:12;;;;;;;12.03;5.80;;;;;;;;;;5074735;28;20225;-72
2022/01/22 07:00:42;;;;;;;12.10;5.37;;;;;;;;;;5075288;28;20244;-74
2022/01/22 07:03:11;;;;;;;9.20;5.67;;;;;;;;;;5074873;28;20210;-75
2022/01/22 07:05:39;;;;;;;10.27;5.00;;;;;;;;;;5074942;28;20198;-73
2022/01/22 07:08:07;;;;;;;8.03;4.83;;;;;;;;;;5075203;28;20268;-72
2022/01/22 07:10:36;;;;;;;8.20;5.30;;;;;;;;;;5075273;28;20211;-75
2022/01/22 07:13:04;;;;;;;12.83;5.37;;;;;;;;;;5075268;28;20198;-74
2022/01/22 07:15:33;;;;;;;7.30;4.87;;;;;;;;;;5075372;28;20195;-72
2022/01/22 07:18:03;;;;;;;7.23;4.60;;;;;;;;;;5067206;28;20222;-72
2022/01/22 07:20:39;;;;;;;10.70;4.73;;;;;;;;;;5074731;28;20709;-73
2022/01/22 07:23:16;;;;;;;7.83;4.63;;;;;;;;;;5067425;28;20651;-73
2022/01/22 07:25:45;;;;;;;6.97;4.50;;;;;;;;;;5057260;28;20207;-72
2022/01/22 07:28:13;;;;;;;9.27;5.40;;;;;;;;;;5070202;28;20713;-73
2022/01/22 07:30:42;;;;;;;7.97;4.90;;;;;;;;;;5074702;28;20672;-73
2022/01/22 07:33:12;;;;;;;12.00;5.87;;;;;;;;;;5074409;28;20194;-72
2022/01/22 07:35:41;;;;;;;9.73;5.53;;;;;;;;;;5074729;28;20203;-74
2022/01/22 07:38:10;;;;;;;10.13;5.57;;;;;;;;;;5059307;28;20219;-72
2022/01/22 07:40:38;;;;;;;8.50;5.50;;;;;;;;;;5073981;28;20666;-74
2022/01/22 07:43:06;;;;;;;11.27;6.03;;;;;;;;;;5074440;28;20214;-72
2022/01/22 07:45:35;;;;;;;9.37;6.37;;;;;;;;;;5084643;28;20666;-72
2022/01/22 07:48:05;;;;;;;8.83;6.23;;;;;;;;;;5070448;28;20226;-73
2022/01/22 07:50:38;;;;;;;10.03;6.23;;;;;;;;;;5073506;28;20209;-74
2022/01/22 07:53:06;;;;;;;10.23;6.13;;;;;;;;;;5074262;28;20222;-76
2022/01/22 07:55:34;;;;;;;11.13;6.20;;;;;;;;;;5075641;28;20209;-74
2022/01/22 07:58:03;;;;;;;9.80;5.90;;;;;;;;;;5071592;28;20226;-72
2022/01/22 08:00:31;;;;;;;10.17;5.90;;;;;;;;;;5078587;28;20198;-71
2022/01/22 08:03:00;;;;;;;10.33;6.07;;;;;;;;;;5075350;28;20219;-73
2022/01/22 08:05:29;;;;;;;11.07;6.70;;;;;;;;;;5074932;28;20201;-74
2022/01/22 08:07:59;;;;;;;11.90;6.43;;;;;;;;;;5070328;28;20682;-74
2022/01/22 08:10:28;;;;;;;9.37;6.63;;;;;;;;;;5074178;28;20399;-73
2022/01/22 08:12:57;;;;;;;9.90;6.60;;;;;;;;;;5073646;28;20316;-73
2022/01/22 08:15:25;;;;;;;9.07;6.10;;;;;;;;;;5073853;28;20194;-72
2022/01/22 08:17:55;;;;;;;11.67;7.00;;;;;;;;;;5071611;28;20219;-73
2022/01/22 08:20:24;;;;;;;12.50;6.57;;;;;;;;;;5072954;28;20203;-75
2022/01/22 08:22:54;;;;;;;9.33;4.93;;;;;;;;;;5067526;28;20226;-72
2022/01/22 08:25:24;;;;;;;6.90;5.13;;;;;;;;;;5072779;28;20198;-74
2022/01/22 08:30:40;;;;;;;7.07;4.30;;;;;;;;;;5072939;28;20259;-71
2022/01/22 08:33:32;;;;;;;6.27;4.73;;;;;;;;;;5076444;28;20209;-74
2022/01/22 08:35:59;;;;;;;7.50;4.90;;;;;;;;;;5072275;28;20198;-73
2022/01/22 08:38:28;;;;;;;5.57;4.43;;;;;;;;;;5073697;28;20578;-72
2022/01/22 08:40:59;;;;;;;6.97;4.30;;;;;;;;;;5072933;28;20540;-71
2022/01/22 08:43:28;;;;;;;5.60;4.83;;;;;;;;;;5086895;28;20248;-71
2022/01/22 08:45:56;;;;;;;5.73;4.23;;;;;;;;;;5073319;28;20673;-74
2022/01/22 08:48:25;;;;;;;7.73;4.00;;;;;;;;;;5070536;28;20272;-71
2022/01/22 08:50:53;;;;;;;5.60;4.30;;;;;;;;;;5072248;28;20203;-73
2022/01/22 08:53:41;;;;;;;4.80;4.03;;;;;;;;;;5073320;28;20295;-73
2022/01/22 08:56:12;;;;;;;5.17;3.80;;;;;;;;;;5073967;28;20198;-72
2022/01/22 08:58:40;;;;;;;6.57;4.10;;;;;;;;;;5071492;28;20218;-72
2022/01/22 09:01:09;;;;;;;6.50;3.60;;;;;;;;;;5073125;28;20210;-73
2022/01/22 09:03:38;;;;;;;5.43;3.93;;;;;;;;;;5070985;28;20222;-74
2022/01/22 09:06:07;;;;;;;5.63;3.47;;;;;;;;;;5076518;28;20610;-74
2022/01/22 09:08:35;;;;;;;4.27;3.37;;;;;;;;;;5082411;28;20272;-71
2022/01/22 09:11:04;;;;;;;4.40;3.40;;;;;;;;;;5077990;28;20252;-73
2022/01/22 09:13:34;;;;;;;7.40;4.00;;;;;;;;;;5073459;28;20265;-75
2022/01/22 09:16:03;;;;;;;5.60;3.60;;;;;;;;;;5074754;28;20293;-72
2022/01/22 09:18:31;;;;;;;6.40;3.67;;;;;;;;;;5079878;28;20222;-74
2022/01/22 09:21:04;;;;;;;4.97;3.20;;;;;;;;;;4719436;28;9999614;-74
2022/01/22 09:23:33;;;;;;;5.97;3.93;;;;;;;;;;5083213;28;20978;-73
2022/01/22 09:26:02;;;;;;;6.47;3.43;;;;;;;;;;5071675;28;20206;-74
2022/01/22 09:28:32;;;;;;;7.17;3.53;;;;;;;;;;5059066;28;20223;-72
2022/01/22 09:31:02;;;;;;;7.13;3.40;;;;;;;;;;5082682;28;20621;-74
2022/01/22 09:33:30;;;;;;;6.80;3.50;;;;;;;;;;5050875;28;20203;-71
2022/01/22 09:35:59;;;;;;;5.13;3.33;;;;;;;;;;5064711;28;20609;-74
2022/01/22 09:38:27;;;;;;;6.77;3.37;;;;;;;;;;5073110;28;20693;-73
2022/01/22 09:40:55;;;;;;;6.47;3.53;;;;;;;;;;5070625;28;20206;-72
2022/01/22 09:43:24;;;;;;;5.93;3.47;;;;;;;;;;5057171;28;20219;-74
2022/01/22 09:45:52;;;;;;;5.67;3.70;;;;;;;;;;5067073;28;20215;-73
2022/01/22 09:48:22;;;;;;;5.73;4.13;;;;;;;;;;5067125;28;20226;-71
2022/01/22 09:50:51;;;;;;;6.33;3.60;;;;;;;;;;5070019;28;20716;-74
2022/01/22 09:53:20;;;;;;;5.60;3.97;;;;;;;;;;5066551;28;20194;-74
2022/01/22 09:55:48;;;;;;;4.73;3.63;;;;;;;;;;5061286;28;20199;-74
2022/01/22 09:58:17;;;;;;;5.53;3.70;;;;;;;;;;5066717;28;20268;-75
2022/01/22 10:00:45;;;;;;;6.93;4.40;;;;;;;;;;5065140;28;20742;-74
2022/01/22 10:03:19;;;;;;;5.67;3.83;;;;;;;;;;5063240;28;20219;-73
2022/01/22 10:05:50;;;;;;;5.90;4.17;;;;;;;;;;5066199;28;20560;-74
2022/01/22 10:08:24;;;;;;;5.47;3.80;;;;;;;;;;5070038;28;20269;-72
2022/01/22 10:10:53;;;;;;;6.10;3.77;;;;;;;;;;5066843;28;20215;-74
2022/01/22 10:13:43;;;;;;;4.80;4.10;;;;;;;;;;5070467;28;20202;-74
2022/01/22 10:16:12;;;;;;;5.10;3.60;;;;;;;;;;5070380;28;20666;-73
2022/01/22 10:18:41;;;;;;;4.73;3.63;;;;;;;;;;5066832;28;20214;-73
2022/01/22 10:21:11;;;;;;;5.87;3.63;;;;;;;;;;5075201;28;20207;-73
2022/01/22 10:23:41;;;;;;;5.27;4.13;;;;;;;;;;5067238;28;21074;-73
2022/01/22 10:26:12;;;;;;;6.17;3.93;;;;;;;;;;5068036;28;20199;-73
2022/01/22 10:28:43;;;;;;;4.27;3.83;;;;;;;;;;5073859;28;20280;-74
2022/01/22 10:31:20;;;;;;;4.70;3.60;;;;;;;;;;5060372;28;20198;-74
2022/01/22 10:34:07;;;;;;;5.33;4.10;;;;;;;;;;5074085;28;20659;-73
2022/01/22 10:36:37;;;;;;;4.37;3.80;;;;;;;;;;5071076;28;20198;-74
2022/01/22 10:39:07;;;;;;;4.00;3.17;;;;;;;;;;5064574;28;20219;-73
2022/01/22 10:41:38;;;;;;;4.87;3.77;;;;;;;;;;5065196;28;20248;-71
2022/01/22 10:44:09;;;;;;;4.70;3.80;;;;;;;;;;5068739;28;20295;-75
2022/01/22 10:46:46;;;;;;;5.83;4.07;;;;;;;;;;5069672;28;20213;-72
2022/01/22 10:49:16;;;;;;;5.30;4.10;;;;;;;;;;5067615;28;20658;-73
2022/01/22 10:51:47;;;;;;;4.93;3.80;;;;;;;;;;5073770;28;20662;-73
2022/01/22 10:54:16;;;;;;;5.97;4.30;;;;;;;;;;5071086;28;20217;-73
2022/01/22 10:56:44;;;;;;;4.80;3.90;;;;;;;;;;5082587;28;20198;-75
2022/01/22 10:59:13;;;;;;;5.17;3.83;;;;;;;;;;5073658;28;20210;-75
2022/01/22 11:01:53;;;;;;;6.23;4.07;;;;;;;;;;5075056;28;20206;-74
2022/01/22 11:04:23;;;;;;;4.63;3.90;;;;;;;;;;5069205;28;20224;-73
2022/01/22 11:06:54;;;;;;;5.17;3.50;;;;;;;;;;5065255;28;20234;-72
2022/01/22 11:09:43;;;;;;;3.90;3.40;;;;;;;;;;5067415;28;20691;-75
2022/01/22 11:12:12;;;;;;;3.67;3.17;;;;;;;;;;4716346;28;10000287;-74
2022/01/22 11:14:40;;;;;;;6.57;3.03;;;;;;;;;;5071651;28;20195;-74
2022/01/22 11:17:09;;;;;;;4.60;3.00;;;;;;;;;;5069389;28;20218;-71
2022/01/22 11:19:39;;;;;;;4.40;3.10;;;;;;;;;;5063181;28;20199;-73
2022/01/22 11:22:09;;;;;;;3.33;3.03;;;;;;;;;;5067530;28;20255;-71
2022/01/22 11:24:39;;;;;;;3.40;2.97;;;;;;;;;;5066550;28;20639;-73
2022/01/22 11:27:08;;;;;;;4.30;3.37;;;;;;;;;;5065972;28;20599;-72
2022/01/22 11:29:41;;;;;;;3.67;3.33;;;;;;;;;;5061576;28;20207;-73
2022/01/22 11:32:12;;;;;;;4.30;3.20;;;;;;;;;;5071128;28;20280;-73
2022/01/22 11:34:41;;;;;;;4.83;2.97;;;;;;;;;;5076337;28;20646;-71
2022/01/22 11:37:14;;;;;;;3.30;3.00;;;;;;;;;;5074355;28;20273;-72
2022/01/22 11:39:43;;;;;;;3.50;3.20;;;;;;;;;;5072096;28;20210;-73
2022/01/22 11:42:11;;;;;;;4.27;2.90;;;;;;;;;;5065923;28;20205;-73
2022/01/22 11:44:48;;;;;;;3.23;2.87;;;;;;;;;;5065950;28;20222;-74
2022/01/22 11:47:17;;;;;;;3.00;2.70;;;;;;;;;;5068653;28;20225;-72
2022/01/22 11:50:00;;;;;;;3.23;2.70;;;;;;;;;;5068137;28;20256;-75
2022/01/22 11:52:33;;;;;;;3.73;3.00;;;;;;;;;;5069540;28;20249;-74
2022/01/22 11:55:07;;;;;;;3.10;2.47;;;;;;;;;;5066126;28;20206;-74
2022/01/22 11:57:36;;;;;;;2.90;2.60;;;;;;;;;;5068438;28;20226;-74
2022/01/22 12:00:32;;;;;;;3.30;2.73;;;;;;;;;;5069155;28;20207;-74
2022/01/22 12:03:20;;;;;;;2.97;2.60;;;;;;;;;;5053586;28;20209;-72
2022/01/22 12:06:10;;;;;;;2.70;2.50;;;;;;;;;;5063051;28;20230;-72
2022/01/22 12:09:15;;;;;;;3.67;2.80;;;;;;;;;;5061744;28;20231;-74
2022/01/22 12:14:53;;;;;;;3.90;2.90;;;;;;;;;;5045413;28;20202;-73
2022/01/22 12:17:42;;;;;;;2.97;2.67;;;;;;;;;;5053546;28;20767;-74
2022/01/22 12:21:30;;;;;;;2.60;2.40;;;;;;;;;;5069989;28;20722;-73
2022/01/22 12:23:47;;;;;;;2.63;2.43;;;;;;;;;;5069979;28;20214;-73
2022/01/22 12:26:15;;;;;;;2.50;2.30;;;;;;;;;;5069403;28;20255;-75
2022/01/22 12:28:48;;;;;;;2.70;2.50;;;;;;;;;;5069336;28;21029;-72
2022/01/22 12:31:19;;;;;;;2.40;2.20;;;;;;;;;;5070290;28;20731;-72
2022/01/22 12:33:51;;;;;;;4.17;2.70;;;;;;;;;;5068547;28;20342;-72
2022/01/22 12:36:24;;;;;;;3.07;2.50;;;;;;;;;;5070515;28;20259;-73
2022/01/22 12:39:01;;;;;;;5.67;3.77;;;;;;;;;;5070537;28;20268;-74
2022/01/22 12:41:33;;;;;;;3.10;2.80;;;;;;;;;;5070037;28;20205;-74
2022/01/22 12:44:11;;;;;;;2.67;2.47;;;;;;;;;;5066576;28;20763;-74
2022/01/22 12:46:53;;;;;;;2.70;2.10;;;;;;;;;;5067705;28;20205;-75
2022/01/22 12:49:22;;;;;;;2.40;2.20;;;;;;;;;;5066550;28;20659;-74
2022/01/22 12:51:55;;;;;;;3.23;2.47;;;;;;;;;;5069314;28;20604;-75
2022/01/22 12:54:30;;;;;;;2.47;2.27;;;;;;;;;;5074244;28;20194;-74
2022/01/22 12:57:05;;;;;;;2.00;1.90;;;;;;;;;;5069907;28;20720;-74
2022/01/22 12:59:47;;;;;;;1.70;1.60;;;;;;;;;;5069497;28;20828;-72
2022/01/22 13:02:23;;;;;;;1.60;1.50;;;;;;;;;;5068116;28;20819;-74
2022/01/22 13:04:58;;;;;;;2.43;2.13;;;;;;;;;;5063499;28;20761;-72
2022/01/22 13:07:27;;;;;;;2.40;1.87;;;;;;;;;;5077143;28;20268;-74
2022/01/22 13:09:58;;;;;;;1.60;1.50;;;;;;;;;;5069954;28;20281;-73
2022/01/22 13:12:27;;;;;;;1.60;1.10;;;;;;;;;;5073302;28;20209;-73
2022/01/22 13:14:57;;;;;;;1.47;1.00;;;;;;;;;;5063914;28;20257;-73
2022/01/22 13:17:29;;;;;;;2.57;1.10;;;;;;;;;;5070892;28;20221;-73
2022/01/22 13:19:58;;;;;;;1.47;1.27;;;;;;;;;;5069700;28;20233;-74
2022/01/22 13:22:34;;;;;;;1.40;1.30;;;;;;;;;;5068936;28;20209;-73
2022/01/22 13:25:07;;;;;;;1.70;1.10;;;;;;;;;;5070230;28;20217;-73
2022/01/22 13:27:36;;;;;;;1.80;1.10;;;;;;;;;;5070128;28;20222;-72
2022/01/22 13:30:08;;;;;;;0.90;0.90;;;;;;;;;;5068976;28;20202;-74
2022/01/22 13:32:50;;;;;;;3.10;1.20;;;;;;;;;;5050386;28;20218;-72
2022/01/22 13:35:29;;;;;;;1.50;1.40;;;;;;;;;;5054452;28;20202;-73
2022/01/22 13:49:14;;;;;;;1.60;1.50;;;;;;;;;;5069576;28;20201;-73
2022/01/22 13:51:43;;;;;;;2.87;1.30;;;;;;;;;;5072579;28;20202;-74
2022/01/22 13:54:12;;;;;;;1.87;1.40;;;;;;;;;;5072526;28;20213;-74
2022/01/22 13:56:46;;;;;;;1.93;1.80;;;;;;;;;;5073084;28;20215;-74
2022/01/22 13:59:15;;;;;;;1.80;1.70;;;;;;;;;;5086194;28;20653;-73
2022/01/22 14:01:53;;;;;;;2.20;1.50;;;;;;;;;;5076555;28;20226;-73
2022/01/22 14:04:23;;;;;;;2.07;1.87;;;;;;;;;;5053592;28;20238;-72
2022/01/22 14:06:51;;;;;;;2.03;1.70;;;;;;;;;;5068465;28;20206;-72
2022/01/22 14:09:23;;;;;;;2.40;1.67;;;;;;;;;;5074101;28;20207;-72
2022/01/22 14:12:04;;;;;;;2.77;1.93;;;;;;;;;;5074351;28;20694;-74
2022/01/22 14:14:48;;;;;;;2.13;1.63;;;;;;;;;;5083899;28;20198;-72
2022/01/22 14:17:20;;;;;;;2.43;1.83;;;;;;;;;;5072082;28;20292;-74
2022/01/22 14:19:58;;;;;;;2.27;1.50;;;;;;;;;;5072908;28;20206;-73
2022/01/22 14:22:27;;;;;;;1.57;1.47;;;;;;;;;;5075623;28;20594;-72
2022/01/22 14:25:11;;;;;;;2.17;1.20;;;;;;;;;;5073207;28;20234;-74
2022/01/22 14:27:39;;;;;;;2.43;1.50;;;;;;;;;;5068815;28;20581;-73
2022/01/22 14:30:08;;;;;;;1.97;1.50;;;;;;;;;;5072041;28;20674;-73
2022/01/22 14:32:38;;;;;;;1.53;1.30;;;;;;;;;;5090112;28;20205;-73
2022/01/22 14:35:20;;;;;;;1.43;1.20;;;;;;;;;;5071930;28;20926;-72
2022/01/22 14:37:52;;;;;;;3.13;1.67;;;;;;;;;;5073352;28;20222;-73
2022/01/22 14:45:58;;;;;;;3.70;1.80;;;;;;;;;;5066664;28;20214;-71
2022/01/22 14:48:28;;;;;;;1.80;1.53;;;;;;;;;;5065594;28;21952;-73
2022/01/22 14:50:56;;;;;;;3.03;1.30;;;;;;;;;;5070418;28;20203;-72
2022/01/22 14:53:24;;;;;;;1.47;1.33;;;;;;;;;;5065286;28;20252;-72
2022/01/22 14:55:57;;;;;;;1.90;1.33;;;;;;;;;;5064452;27;20203;-71
2022/01/22 14:58:25;;;;;;;1.40;1.30;;;;;;;;;;5068254;28;20248;-71
2022/01/22 15:00:54;;;;;;;2.17;1.40;;;;;;;;;;5064099;28;20198;-72
2022/01/22 15:03:24;;;;;;;1.50;1.40;;;;;;;;;;5071449;28;20202;-73
2022/01/22 15:05:53;;;;;;;1.50;1.40;;;;;;;;;;5068396;28;20267;-72
2022/01/22 15:08:24;;;;;;;2.23;1.27;;;;;;;;;;5070472;28;20630;-72
2022/01/22 15:10:52;;;;;;;1.30;1.10;;;;;;;;;;5071752;28;20206;-71
2022/01/22 15:13:21;;;;;;;2.17;1.20;;;;;;;;;;5063843;28;20199;-74
2022/01/22 15:15:58;;;;;;;1.50;1.20;;;;;;;;;;5064408;28;20217;-72
2022/01/22 15:18:50;;;;;;;2.33;1.40;;;;;;;;;;5067441;28;20216;-71
2022/01/22 15:21:16;;;;;;;2.07;1.50;;;;;;;;;;5057894;28;21152;-71
2022/01/22 15:23:45;;;;;;;2.73;1.50;;;;;;;;;;5067182;28;20555;-72
2022/01/22 15:26:14;;;;;;;1.90;1.60;;;;;;;;;;5068019;28;20238;-72
2022/01/22 15:28:45;;;;;;;2.17;1.70;;;;;;;;;;5064818;28;20265;-70
2022/01/22 15:31:29;;;;;;;2.57;1.80;;;;;;;;;;5073578;28;20203;-72
2022/01/22 15:34:38;;;;;;;3.53;1.80;;;;;;;;;;5068636;27;20283;-70
2022/01/22 15:37:09;;;;;;;1.63;1.53;;;;;;;;;;5072066;28;20256;-73
2022/01/22 15:39:38;;;;;;;2.23;1.63;;;;;;;;;;5066482;28;20248;-71
2022/01/22 15:42:07;;;;;;;4.23;1.87;;;;;;;;;;5067294;28;20199;-72
2022/01/22 15:44:35;;;;;;;2.90;1.60;;;;;;;;;;5070394;28;20202;-72
2022/01/22 15:47:04;;;;;;;2.33;2.00;;;;;;;;;;5070066;28;20564;-72
2022/01/22 15:49:32;;;;;;;3.90;2.60;;;;;;;;;;5072085;28;20732;-72
2022/01/22 15:52:02;;;;;;;3.07;2.57;;;;;;;;;;4719317;28;10000550;-73
2022/01/22 15:54:32;;;;;;;2.93;2.70;;;;;;;;;;5064087;28;20202;-70
2022/01/22 15:57:04;;;;;;;3.30;2.73;;;;;;;;;;5071457;28;20229;-72
2022/01/22 15:59:33;;;;;;;6.00;2.83;;;;;;;;;;5064707;28;20199;-71
2022/01/22 16:02:01;;;;;;;3.80;3.43;;;;;;;;;;5063592;28;20622;-71
2022/01/22 16:04:29;;;;;;;4.73;3.43;;;;;;;;;;5066070;28;20646;-73
2022/01/22 16:07:06;;;;;;;4.20;3.50;;;;;;;;;;5068460;28;20222;-71
2022/01/22 16:09:36;;;;;;;4.20;3.80;;;;;;;;;;5070669;28;20198;-72
2022/01/22 16:12:18;;;;;;;5.17;3.60;;;;;;;;;;5071215;28;20662;-73
2022/01/22 16:14:49;;;;;;;5.17;3.83;;;;;;;;;;5068744;28;20198;-72
2022/01/22 16:17:18;;;;;;;4.50;3.70;;;;;;;;;;5063681;28;20831;-72
2022/01/22 16:19:48;;;;;;;4.40;4.00;;;;;;;;;;5062424;28;20206;-71
2022/01/22 16:22:17;;;;;;;5.00;3.77;;;;;;;;;;5068010;27;20206;-70
2022/01/22 16:24:46;;;;;;;3.97;3.30;;;;;;;;;;5067867;28;20202;-72
2022/01/22 16:27:15;;;;;;;3.80;3.13;;;;;;;;;;5069827;28;20229;-72
2022/01/22 16:29:43;;;;;;;4.73;3.13;;;;;;;;;;5068750;28;20203;-70
2022/01/22 16:32:12;;;;;;;3.50;3.07;;;;;;;;;;5067709;28;20731;-70